createdAt,value
2023-08-15T00:00:11.281Z,21.01
2023-08-15T00:01:12.212Z,21.01
2023-08-15T00:02:13.051Z,20.99
2023-08-15T00:03:14.042Z,20.99
2023-08-15T00:04:14.429Z,20.98
2023-08-15T00:05:15.319Z,20.97
2023-08-15T00:06:16.195Z,20.95
2023-08-15T00:07:17.098Z,20.95
2023-08-15T00:08:17.963Z,20.92
2023-08-15T00:09:18.854Z,20.94
2023-08-15T00:10:19.740Z,20.91
2023-08-15T00:11:20.616Z,20.92
2023-08-15T00:12:21.497Z,20.92
2023-08-15T00:13:22.393Z,20.92
2023-08-15T00:14:23.304Z,20.92
2023-08-15T00:15:24.140Z,20.88
2023-08-15T00:16:25.061Z,20.89
2023-08-15T00:17:25.956Z,20.89
2023-08-15T00:18:26.812Z,20.89
2023-08-15T00:19:27.699Z,20.88
2023-08-15T00:20:28.581Z,20.89
2023-08-15T00:21:29.456Z,20.88
2023-08-15T00:22:30.399Z,20.87
2023-08-15T00:23:31.234Z,20.87
2023-08-15T00:24:32.104Z,20.87
2023-08-15T00:25:32.991Z,20.88
2023-08-15T00:26:33.871Z,20.85
2023-08-15T00:27:34.763Z,20.85
2023-08-15T00:28:35.643Z,20.85
2023-08-15T00:29:36.528Z,20.87
2023-08-15T00:30:37.449Z,20.85
2023-08-15T00:31:38.291Z,20.87
2023-08-15T00:32:39.214Z,20.87
2023-08-15T00:33:40.072Z,20.85
2023-08-15T00:34:40.954Z,20.87
2023-08-15T00:35:41.842Z,20.87
2023-08-15T00:36:42.716Z,20.85
2023-08-15T00:37:43.627Z,20.85
2023-08-15T00:38:44.489Z,20.84
2023-08-15T00:39:45.380Z,20.82
2023-08-15T00:40:46.258Z,20.82
2023-08-15T00:41:47.171Z,20.82
2023-08-15T00:42:48.073Z,20.82
2023-08-15T00:43:48.945Z,20.80
2023-08-15T00:44:49.816Z,20.80
2023-08-15T00:45:50.684Z,20.77
2023-08-15T00:46:51.632Z,20.74
2023-08-15T00:47:52.556Z,20.73
2023-08-15T00:48:53.407Z,20.72
2023-08-15T00:49:54.323Z,20.72
2023-08-15T00:50:55.212Z,20.70
2023-08-15T00:51:56.107Z,20.69
2023-08-15T00:52:57.005Z,20.67
2023-08-15T00:53:57.855Z,20.67
2023-08-15T00:54:58.741Z,20.66
2023-08-15T00:55:59.632Z,20.66
2023-08-15T00:57:00.535Z,20.66
2023-08-15T00:58:01.411Z,20.66
2023-08-15T00:59:02.294Z,20.66
2023-08-15T01:00:03.200Z,20.67
2023-08-15T01:01:04.063Z,20.67
2023-08-15T01:02:05.019Z,20.69
2023-08-15T01:03:05.890Z,20.67
2023-08-15T01:04:06.753Z,20.72
2023-08-15T01:05:07.640Z,20.70
2023-08-15T01:06:08.531Z,20.72
2023-08-15T01:07:09.425Z,20.72
2023-08-15T01:08:10.334Z,20.72
2023-08-15T01:09:11.187Z,20.73
2023-08-15T01:10:12.081Z,20.73
2023-08-15T01:11:12.973Z,20.73
2023-08-15T01:12:13.832Z,20.72
2023-08-15T01:13:14.714Z,20.72
2023-08-15T01:14:15.586Z,20.70
2023-08-15T01:15:16.477Z,20.67
2023-08-15T01:16:17.383Z,20.69
2023-08-15T01:17:18.522Z,20.67
2023-08-15T01:18:19.052Z,20.67
2023-08-15T01:19:19.947Z,20.64
2023-08-15T01:20:20.843Z,20.64
2023-08-15T01:21:21.719Z,20.64
2023-08-15T01:22:22.600Z,20.61
2023-08-15T01:23:23.504Z,20.61
2023-08-15T01:24:24.383Z,20.58
2023-08-15T01:25:25.253Z,20.57
2023-08-15T01:26:26.140Z,20.55
2023-08-15T01:27:27.026Z,20.51
2023-08-15T01:28:27.901Z,20.48
2023-08-15T01:29:28.792Z,20.43
2023-08-15T01:30:29.667Z,20.39
2023-08-15T01:31:30.609Z,20.36
2023-08-15T01:32:31.194Z,20.35
2023-08-15T01:33:32.043Z,20.32
2023-08-15T01:34:32.933Z,20.29
2023-08-15T01:35:33.816Z,20.26
2023-08-15T01:36:34.697Z,20.21
2023-08-15T01:37:35.628Z,20.20
2023-08-15T01:38:36.539Z,20.18
2023-08-15T01:39:37.398Z,20.17
2023-08-15T01:40:38.282Z,20.16
2023-08-15T01:41:39.162Z,20.14
2023-08-15T01:42:40.044Z,20.14
2023-08-15T01:43:40.944Z,20.13
2023-08-15T01:44:41.818Z,20.11
2023-08-15T01:45:42.718Z,20.10
2023-08-15T01:46:43.580Z,20.10
2023-08-15T01:47:44.510Z,20.06
2023-08-15T01:48:45.383Z,20.05
2023-08-15T01:49:46.257Z,20.03
2023-08-15T01:50:47.136Z,20.03
2023-08-15T01:51:48.052Z,20.05
2023-08-15T01:52:48.910Z,19.99
2023-08-15T01:53:49.822Z,20.02
2023-08-15T01:54:50.680Z,19.99
2023-08-15T01:55:51.583Z,19.99
2023-08-15T01:56:52.441Z,19.98
2023-08-15T01:57:53.427Z,19.99
2023-08-15T01:58:54.316Z,19.99
2023-08-15T01:59:55.191Z,19.98
2023-08-15T02:00:56.101Z,19.96
2023-08-15T02:01:56.954Z,19.96
2023-08-15T02:02:57.950Z,19.95
2023-08-15T02:03:58.785Z,19.92
2023-08-15T02:04:59.726Z,19.92
2023-08-15T02:06:00.581Z,19.92
2023-08-15T02:07:01.461Z,19.91
2023-08-15T02:08:02.392Z,19.91
2023-08-15T02:09:03.295Z,19.88
2023-08-15T02:10:04.157Z,19.91
2023-08-15T02:11:05.055Z,19.88
2023-08-15T02:12:05.927Z,19.92
2023-08-15T02:13:06.790Z,19.88
2023-08-15T02:14:07.687Z,19.91
2023-08-15T02:15:08.555Z,19.91
2023-08-15T02:16:09.468Z,19.88
2023-08-15T02:17:10.338Z,19.87
2023-08-15T02:18:11.244Z,19.86
2023-08-15T02:19:12.079Z,19.83
2023-08-15T02:20:12.963Z,19.81
2023-08-15T02:21:13.858Z,19.80
2023-08-15T02:22:14.742Z,19.77
2023-08-15T02:23:15.628Z,19.76
2023-08-15T02:24:16.514Z,19.71
2023-08-15T02:25:17.377Z,19.66
2023-08-15T02:26:18.267Z,19.62
2023-08-15T02:27:19.416Z,19.59
2023-08-15T02:28:19.892Z,19.54
2023-08-15T02:29:20.777Z,19.48
2023-08-15T02:30:21.669Z,19.46
2023-08-15T02:31:22.593Z,19.40
2023-08-15T02:32:23.475Z,19.37
2023-08-15T02:33:24.344Z,19.36
2023-08-15T02:34:25.220Z,19.37
2023-08-15T02:35:26.103Z,19.37
2023-08-15T02:36:26.994Z,19.37
2023-08-15T02:37:27.876Z,19.37
2023-08-15T02:38:28.755Z,19.37
2023-08-15T02:39:29.651Z,19.37
2023-08-15T02:40:30.519Z,19.36
2023-08-15T02:41:31.391Z,19.32
2023-08-15T02:42:32.272Z,19.28
2023-08-15T02:43:33.164Z,19.26
2023-08-15T02:44:34.041Z,19.23
2023-08-15T02:45:34.930Z,19.16
2023-08-15T02:46:35.878Z,19.13
2023-08-15T02:47:36.745Z,19.08
2023-08-15T02:48:37.611Z,19.02
2023-08-15T02:49:38.506Z,19.00
2023-08-15T02:50:39.398Z,18.95
2023-08-15T02:51:40.268Z,18.88
2023-08-15T02:52:41.150Z,18.85
2023-08-15T02:53:42.029Z,18.84
2023-08-15T02:54:42.956Z,18.82
2023-08-15T02:55:43.796Z,18.80
2023-08-15T02:56:44.671Z,18.80
2023-08-15T02:57:45.566Z,18.78
2023-08-15T02:58:46.437Z,18.78
2023-08-15T02:59:47.330Z,18.78
2023-08-15T03:00:48.245Z,18.75
2023-08-15T03:01:49.155Z,18.76
2023-08-15T03:02:50.001Z,18.76
2023-08-15T03:03:50.901Z,18.78
2023-08-15T03:04:51.777Z,18.78
2023-08-15T03:05:52.662Z,18.76
2023-08-15T03:06:53.549Z,18.78
2023-08-15T03:07:54.425Z,18.78
2023-08-15T03:08:55.478Z,18.76
2023-08-15T03:09:55.841Z,18.75
2023-08-15T03:10:56.692Z,18.75
2023-08-15T03:11:57.574Z,18.72
2023-08-15T03:12:58.457Z,18.72
2023-08-15T03:13:59.363Z,18.67
2023-08-15T03:15:00.232Z,18.65
2023-08-15T03:16:01.113Z,18.58
2023-08-15T03:17:01.995Z,18.54
2023-08-15T03:18:02.998Z,18.48
2023-08-15T03:19:03.861Z,18.44
2023-08-15T03:20:04.734Z,18.41
2023-08-15T03:21:05.617Z,18.39
2023-08-15T03:22:06.487Z,18.36
2023-08-15T03:23:07.377Z,18.32
2023-08-15T03:24:08.271Z,18.32
2023-08-15T03:25:09.161Z,18.29
2023-08-15T03:26:10.024Z,18.27
2023-08-15T03:27:10.912Z,18.25
2023-08-15T03:28:11.796Z,18.23
2023-08-15T03:29:12.694Z,18.21
2023-08-15T03:30:13.561Z,18.18
2023-08-15T03:31:14.475Z,18.18
2023-08-15T03:32:15.343Z,18.17
2023-08-15T03:33:16.229Z,18.18
2023-08-15T03:34:17.120Z,18.17
2023-08-15T03:35:19.944Z,18.15
2023-08-15T03:36:18.963Z,18.12
2023-08-15T03:37:20.117Z,18.07
2023-08-15T03:38:20.681Z,18.05
2023-08-15T03:39:21.559Z,17.97
2023-08-15T03:40:22.481Z,17.95
2023-08-15T03:41:23.354Z,17.89
2023-08-15T03:42:24.222Z,17.86
2023-08-15T03:43:25.109Z,17.79
2023-08-15T03:44:25.931Z,17.77
2023-08-15T03:45:26.833Z,17.71
2023-08-15T03:46:27.726Z,17.71
2023-08-15T03:47:28.619Z,17.68
2023-08-15T03:48:29.427Z,17.64
2023-08-15T03:49:30.252Z,17.59
2023-08-15T03:50:31.125Z,17.58
2023-08-15T03:51:46.326Z,17.55
2023-08-15T03:52:33.785Z,17.54
2023-08-15T03:53:33.666Z,17.55
2023-08-15T03:54:34.550Z,17.54
2023-08-15T03:55:35.363Z,17.56
2023-08-15T03:56:36.236Z,17.56
2023-08-15T03:57:37.073Z,17.58
2023-08-15T03:58:37.902Z,17.59
2023-08-15T03:59:38.740Z,17.62
2023-08-15T04:00:39.585Z,17.63
2023-08-15T04:01:40.435Z,17.55
2023-08-15T04:02:41.242Z,17.51
2023-08-15T04:03:42.078Z,17.49
2023-08-15T04:04:42.885Z,17.44
2023-08-15T04:05:43.716Z,17.41
2023-08-15T04:06:44.536Z,17.43
2023-08-15T04:07:45.378Z,17.43
2023-08-15T04:08:46.190Z,17.41
2023-08-15T04:09:47.016Z,17.41
2023-08-15T04:10:47.917Z,17.41
2023-08-15T04:11:48.686Z,17.37
2023-08-15T04:12:49.505Z,17.31
2023-08-15T04:13:50.328Z,17.25
2023-08-15T04:14:51.167Z,17.22
2023-08-15T04:15:52.027Z,17.18
2023-08-15T04:16:52.837Z,17.15
2023-08-15T04:17:53.676Z,17.15
2023-08-15T04:18:54.481Z,17.12
2023-08-15T04:19:55.313Z,17.15
2023-08-15T04:20:56.138Z,17.14
2023-08-15T04:21:56.965Z,17.14
2023-08-15T04:22:57.532Z,17.14
2023-08-15T04:23:58.351Z,17.14
2023-08-15T04:24:59.179Z,17.12
2023-08-15T04:26:00.028Z,17.15
2023-08-15T04:27:00.834Z,17.12
2023-08-15T04:28:01.652Z,17.15
2023-08-15T04:29:02.476Z,17.18
2023-08-15T04:30:03.315Z,17.18
2023-08-15T04:31:04.140Z,17.21
2023-08-15T04:32:05.052Z,17.23
2023-08-15T04:33:05.899Z,17.22
2023-08-15T04:34:06.716Z,17.22
2023-08-15T04:35:07.542Z,17.14
2023-08-15T04:36:08.371Z,17.06
2023-08-15T04:37:09.218Z,17.00
2023-08-15T04:38:10.047Z,16.94
2023-08-15T04:39:10.884Z,16.91
2023-08-15T04:40:12.754Z,16.85
2023-08-15T04:41:12.727Z,16.83
2023-08-15T04:42:13.522Z,16.79
2023-08-15T04:43:14.376Z,16.75
2023-08-15T04:44:15.198Z,16.76
2023-08-15T04:45:16.025Z,16.70
2023-08-15T04:46:16.919Z,16.70
2023-08-15T04:47:17.773Z,16.67
2023-08-15T04:48:18.582Z,16.66
2023-08-15T04:49:19.409Z,16.64
2023-08-15T04:50:20.234Z,16.64
2023-08-15T04:51:21.057Z,16.64
2023-08-15T04:52:21.887Z,16.67
2023-08-15T04:53:22.726Z,16.67
2023-08-15T04:54:23.556Z,16.68
2023-08-15T04:55:24.381Z,16.71
2023-08-15T04:56:25.232Z,16.75
2023-08-15T04:57:26.044Z,16.78
2023-08-15T04:58:26.883Z,16.79
2023-08-15T04:59:27.711Z,16.79
2023-08-15T05:00:28.528Z,16.81
2023-08-15T05:01:29.432Z,16.79
2023-08-15T05:02:30.294Z,16.76
2023-08-15T05:03:31.065Z,16.71
2023-08-15T05:04:31.889Z,16.67
2023-08-15T05:05:32.872Z,16.64
2023-08-15T05:06:33.714Z,16.63
2023-08-15T05:07:34.573Z,16.61
2023-08-15T05:08:35.379Z,16.61
2023-08-15T05:09:36.211Z,16.63
2023-08-15T05:10:37.044Z,16.61
2023-08-15T05:11:37.901Z,16.63
2023-08-15T05:12:38.713Z,16.61
2023-08-15T05:13:39.537Z,16.58
2023-08-15T05:14:40.373Z,16.56
2023-08-15T05:15:41.231Z,16.58
2023-08-15T05:16:42.061Z,16.52
2023-08-15T05:17:42.880Z,16.49
2023-08-15T05:18:43.690Z,16.49
2023-08-15T05:19:44.512Z,16.48
2023-08-15T05:20:45.350Z,16.46
2023-08-15T05:21:46.236Z,16.49
2023-08-15T05:22:47.011Z,16.49
2023-08-15T05:23:47.840Z,16.50
2023-08-15T05:24:48.670Z,16.52
2023-08-15T05:25:49.513Z,16.56
2023-08-15T05:26:50.358Z,16.57
2023-08-15T05:27:51.167Z,16.60
2023-08-15T05:28:51.994Z,16.61
2023-08-15T05:29:52.829Z,16.61
2023-08-15T05:30:53.659Z,16.63
2023-08-15T05:31:54.495Z,16.61
2023-08-15T05:32:55.363Z,16.64
2023-08-15T05:33:56.237Z,16.64
2023-08-15T05:34:57.020Z,16.64
2023-08-15T05:35:57.848Z,16.67
2023-08-15T05:36:58.683Z,16.68
2023-08-15T05:37:59.497Z,16.66
2023-08-15T05:39:00.327Z,16.66
2023-08-15T05:40:03.455Z,16.66
2023-08-15T05:41:02.037Z,16.68
2023-08-15T05:42:02.941Z,16.70
2023-08-15T05:43:03.707Z,16.71
2023-08-15T05:44:04.533Z,16.76
2023-08-15T05:45:05.370Z,16.78
2023-08-15T05:46:06.199Z,16.85
2023-08-15T05:47:07.084Z,16.94
2023-08-15T05:48:10.258Z,17.00
2023-08-15T05:49:08.735Z,17.07
2023-08-15T05:50:09.572Z,17.12
2023-08-15T05:51:10.392Z,17.16
2023-08-15T05:52:11.211Z,17.19
2023-08-15T05:53:12.061Z,17.22
2023-08-15T05:54:12.886Z,17.28
2023-08-15T05:55:13.713Z,17.33
2023-08-15T05:56:14.537Z,17.34
2023-08-15T05:57:15.400Z,17.40
2023-08-15T05:58:16.200Z,17.41
2023-08-15T05:59:17.041Z,17.46
2023-08-15T06:00:17.870Z,17.49
2023-08-15T06:01:18.774Z,17.52
2023-08-15T06:02:19.559Z,17.55
2023-08-15T06:03:36.011Z,17.62
2023-08-15T06:04:22.162Z,17.66
2023-08-15T06:05:21.963Z,17.71
2023-08-15T06:06:22.805Z,17.74
2023-08-15T06:07:23.684Z,17.77
2023-08-15T06:08:25.916Z,17.78
2023-08-15T06:09:25.240Z,17.81
2023-08-15T06:10:26.071Z,17.86
2023-08-15T06:11:26.955Z,17.87
2023-08-15T06:12:27.816Z,17.89
2023-08-15T06:13:28.614Z,17.90
2023-08-15T06:14:29.439Z,17.96
2023-08-15T06:15:30.287Z,17.96
2023-08-15T06:16:31.158Z,17.97
2023-08-15T06:17:32.067Z,18.00
2023-08-15T06:18:32.899Z,18.05
2023-08-15T06:19:33.712Z,18.08
2023-08-15T06:20:34.575Z,18.11
2023-08-15T06:21:35.135Z,18.15
2023-08-15T06:22:35.951Z,18.20
2023-08-15T06:23:36.862Z,18.23
2023-08-15T06:24:37.690Z,18.25
2023-08-15T06:25:38.505Z,18.29
2023-08-15T06:26:39.413Z,18.33
2023-08-15T06:27:40.273Z,18.37
2023-08-15T06:28:41.069Z,18.41
2023-08-15T06:29:41.903Z,18.47
2023-08-15T06:30:42.775Z,18.51
2023-08-15T06:31:43.644Z,18.57
2023-08-15T06:32:44.522Z,18.63
2023-08-15T06:33:45.312Z,18.67
2023-08-15T06:34:46.137Z,18.72
2023-08-15T06:35:46.977Z,18.76
2023-08-15T06:36:47.801Z,18.78
2023-08-15T06:37:48.632Z,18.82
2023-08-15T06:38:49.463Z,18.85
2023-08-15T06:39:50.288Z,18.88
2023-08-15T06:40:51.111Z,18.92
2023-08-15T06:41:51.957Z,18.95
2023-08-15T06:42:52.849Z,18.98
2023-08-15T06:43:53.607Z,19.00
2023-08-15T06:44:54.436Z,19.02
2023-08-15T06:45:55.269Z,19.08
2023-08-15T06:46:56.100Z,19.11
2023-08-15T06:47:56.981Z,19.16
2023-08-15T06:48:57.776Z,19.21
2023-08-15T06:49:58.606Z,19.25
2023-08-15T06:50:59.442Z,19.31
2023-08-15T06:52:00.262Z,19.36
2023-08-15T06:53:01.093Z,19.41
2023-08-15T06:54:01.908Z,19.47
2023-08-15T06:55:02.738Z,19.56
2023-08-15T06:56:04.572Z,19.63
2023-08-15T06:57:04.370Z,19.69
2023-08-15T06:58:05.232Z,19.76
2023-08-15T06:59:06.606Z,19.81
2023-08-15T07:00:06.997Z,19.92
2023-08-15T07:01:07.872Z,19.99
2023-08-15T07:02:08.649Z,20.03
2023-08-15T07:03:09.545Z,20.03
2023-08-15T07:04:10.358Z,20.08
2023-08-15T07:05:11.196Z,20.13
2023-08-15T07:06:12.022Z,20.16
2023-08-15T07:07:12.849Z,20.20
2023-08-15T07:08:13.676Z,20.26
2023-08-15T07:09:14.505Z,20.32
2023-08-15T07:10:15.344Z,20.39
2023-08-15T07:11:16.173Z,20.48
2023-08-15T07:12:17.000Z,20.62
2023-08-15T07:13:17.835Z,20.87
2023-08-15T07:14:18.645Z,21.13
2023-08-15T07:15:19.492Z,21.44
2023-08-15T07:16:20.358Z,21.84
2023-08-15T07:17:21.187Z,22.60
2023-08-15T07:18:22.032Z,23.15
2023-08-15T07:19:22.872Z,23.70
2023-08-15T07:20:23.675Z,24.20
2023-08-15T07:21:24.512Z,24.64
2023-08-15T07:22:25.325Z,24.93
2023-08-15T07:23:26.155Z,25.30
2023-08-15T07:24:27.000Z,25.57
2023-08-15T07:25:27.830Z,25.99
2023-08-15T07:26:28.653Z,26.44
2023-08-15T07:27:29.472Z,26.95
2023-08-15T07:28:30.333Z,27.49
2023-08-15T07:29:31.138Z,27.92
2023-08-15T07:30:31.982Z,28.31
2023-08-15T07:31:32.865Z,28.70
2023-08-15T07:32:33.736Z,29.06
2023-08-15T07:33:34.545Z,29.51
2023-08-15T07:34:35.371Z,29.85
2023-08-15T07:35:36.185Z,30.16
2023-08-15T07:36:37.004Z,30.39
2023-08-15T07:37:37.830Z,30.76
2023-08-15T07:38:38.664Z,31.10
2023-08-15T07:39:39.511Z,31.38
2023-08-15T07:40:40.340Z,31.63
2023-08-15T07:41:41.163Z,31.65
2023-08-15T07:42:41.987Z,31.66
2023-08-15T07:43:42.855Z,31.56
2023-08-15T07:44:43.654Z,31.34
2023-08-15T07:45:44.533Z,31.13
2023-08-15T07:46:45.344Z,31.29
2023-08-15T07:47:46.225Z,31.85
2023-08-15T07:48:47.650Z,32.22
2023-08-15T07:49:48.450Z,32.29
2023-08-15T07:50:48.304Z,32.29
2023-08-15T07:51:49.128Z,32.40
2023-08-15T07:52:49.986Z,32.59
2023-08-15T07:53:50.795Z,32.99
2023-08-15T07:54:51.628Z,33.31
2023-08-15T07:55:52.449Z,33.47
2023-08-15T07:56:53.273Z,33.68
2023-08-15T07:57:54.114Z,33.45
2023-08-15T07:58:54.965Z,32.59
2023-08-15T07:59:55.754Z,32.18
2023-08-15T08:00:56.587Z,32.21
2023-08-15T08:01:57.412Z,32.38
2023-08-15T08:02:58.264Z,32.78
2023-08-15T08:03:59.066Z,33.06
2023-08-15T08:04:59.918Z,33.22
2023-08-15T08:06:00.947Z,33.21
2023-08-15T08:07:01.299Z,33.01
2023-08-15T08:08:02.156Z,32.44
2023-08-15T08:09:02.984Z,31.96
2023-08-15T08:10:03.813Z,31.58
2023-08-15T08:11:04.678Z,31.12
2023-08-15T08:12:05.516Z,30.60
2023-08-15T08:13:06.346Z,30.15
2023-08-15T08:14:07.203Z,29.71
2023-08-15T08:15:07.996Z,29.27
2023-08-15T08:16:08.888Z,28.85
2023-08-15T08:17:09.722Z,28.48
2023-08-15T08:18:10.630Z,28.12
2023-08-15T08:19:11.417Z,27.82
2023-08-15T08:20:12.253Z,27.59
2023-08-15T08:21:13.092Z,27.36
2023-08-15T08:22:13.931Z,27.19
2023-08-15T08:23:14.764Z,27.04
2023-08-15T08:24:15.574Z,26.92
2023-08-15T08:25:16.396Z,26.81
2023-08-15T08:26:17.271Z,26.69
2023-08-15T08:27:18.108Z,26.63
2023-08-15T08:28:18.934Z,26.57
2023-08-15T08:29:19.782Z,26.47
2023-08-15T08:30:20.573Z,26.35
2023-08-15T08:31:21.429Z,26.28
2023-08-15T08:32:22.564Z,26.26
2023-08-15T08:33:22.997Z,26.18
2023-08-15T08:34:23.816Z,26.15
2023-08-15T08:35:24.658Z,26.07
2023-08-15T08:36:25.502Z,26.05
2023-08-15T08:37:26.330Z,26.06
2023-08-15T08:38:28.571Z,26.09
2023-08-15T08:39:32.303Z,26.06
2023-08-15T08:40:28.670Z,26.09
2023-08-15T08:41:29.484Z,26.10
2023-08-15T08:42:30.312Z,26.17
2023-08-15T08:43:31.152Z,26.21
2023-08-15T08:44:31.991Z,26.18
2023-08-15T08:45:32.864Z,26.12
2023-08-15T08:46:33.655Z,26.13
2023-08-15T08:47:34.503Z,26.17
2023-08-15T08:48:36.535Z,26.13
2023-08-15T08:49:36.242Z,26.10
2023-08-15T08:50:37.059Z,26.15
2023-08-15T08:51:37.885Z,26.17
2023-08-15T08:52:38.706Z,26.18
2023-08-15T08:53:39.533Z,26.21
2023-08-15T08:54:55.857Z,26.17
2023-08-15T08:55:42.095Z,26.17
2023-08-15T08:56:41.907Z,26.13
2023-08-15T08:57:42.737Z,26.10
2023-08-15T08:58:43.562Z,26.15
2023-08-15T08:59:44.430Z,26.15
2023-08-15T09:00:45.231Z,26.13
2023-08-15T09:01:46.183Z,26.17
2023-08-15T09:02:47.014Z,26.17
2023-08-15T09:03:47.956Z,26.21
2023-08-15T09:04:48.770Z,26.26
2023-08-15T09:05:49.587Z,26.30
2023-08-15T09:06:50.432Z,26.33
2023-08-15T09:07:51.237Z,26.35
2023-08-15T09:08:53.615Z,26.35
2023-08-15T09:09:52.913Z,26.29
2023-08-15T09:10:53.729Z,26.25
2023-08-15T09:11:54.561Z,26.28
2023-08-15T09:12:55.387Z,26.21
2023-08-15T09:13:56.231Z,26.17
2023-08-15T09:14:57.075Z,26.18
2023-08-15T09:15:57.960Z,26.18
2023-08-15T09:16:58.846Z,26.25
2023-08-15T09:17:59.690Z,26.26
2023-08-15T09:19:00.519Z,26.26
2023-08-15T09:20:01.342Z,26.36
2023-08-15T09:21:02.172Z,26.37
2023-08-15T09:22:03.000Z,26.35
2023-08-15T09:23:04.916Z,26.37
2023-08-15T09:24:04.321Z,26.40
2023-08-15T09:25:05.140Z,26.44
2023-08-15T09:26:05.967Z,26.40
2023-08-15T09:27:06.804Z,26.43
2023-08-15T09:28:07.688Z,26.44
2023-08-15T09:29:08.494Z,26.43
2023-08-15T09:30:09.377Z,26.44
2023-08-15T09:31:10.175Z,26.40
2023-08-15T09:32:10.983Z,26.37
2023-08-15T09:33:11.841Z,26.39
2023-08-15T09:34:12.644Z,26.39
2023-08-15T09:35:13.484Z,26.39
2023-08-15T09:36:14.335Z,26.40
2023-08-15T09:37:15.172Z,26.43
2023-08-15T09:38:15.994Z,26.45
2023-08-15T09:39:16.829Z,26.50
2023-08-15T09:40:17.679Z,26.52
2023-08-15T09:41:18.348Z,26.60
2023-08-15T09:42:19.180Z,26.63
2023-08-15T09:43:20.011Z,26.62
2023-08-15T09:44:20.852Z,26.63
2023-08-15T09:45:21.855Z,26.65
2023-08-15T09:46:22.264Z,26.65
2023-08-15T09:47:23.383Z,26.67
2023-08-15T09:48:23.847Z,26.70
2023-08-15T09:49:24.672Z,26.73
2023-08-15T09:50:25.611Z,26.73
2023-08-15T09:51:26.436Z,26.77
2023-08-15T09:52:27.260Z,26.81
2023-08-15T09:53:28.084Z,26.84
2023-08-15T09:54:28.913Z,26.87
2023-08-15T09:55:29.741Z,26.88
2023-08-15T09:56:30.579Z,26.88
2023-08-15T09:57:31.400Z,26.91
2023-08-15T09:58:32.226Z,26.95
2023-08-15T09:59:33.055Z,27.00
2023-08-15T10:00:33.964Z,27.07
2023-08-15T10:01:34.775Z,27.09
2023-08-15T10:02:35.601Z,27.12
2023-08-15T10:03:36.446Z,27.19
2023-08-15T10:04:37.271Z,27.21
2023-08-15T10:05:38.100Z,27.21
2023-08-15T10:06:38.919Z,27.25
2023-08-15T10:07:39.742Z,27.25
2023-08-15T10:08:40.564Z,27.25
2023-08-15T10:09:41.394Z,27.27
2023-08-15T10:10:42.231Z,27.28
2023-08-15T10:11:43.060Z,27.28
2023-08-15T10:12:43.888Z,27.28
2023-08-15T10:13:44.716Z,27.29
2023-08-15T10:14:45.563Z,27.32
2023-08-15T10:15:46.425Z,27.29
2023-08-15T10:16:47.329Z,27.31
2023-08-15T10:17:48.203Z,27.28
2023-08-15T10:18:49.042Z,27.24
2023-08-15T10:19:49.890Z,27.25
2023-08-15T10:20:50.717Z,27.21
2023-08-15T10:21:51.538Z,27.19
2023-08-15T10:22:52.367Z,27.19
2023-08-15T10:23:52.914Z,27.18
2023-08-15T10:24:53.803Z,27.18
2023-08-15T10:25:54.631Z,27.18
2023-08-15T10:26:55.506Z,27.19
2023-08-15T10:27:56.333Z,27.18
2023-08-15T10:28:57.161Z,27.18
2023-08-15T10:29:58.007Z,27.18
2023-08-15T10:30:58.908Z,27.25
2023-08-15T10:31:59.685Z,27.29
2023-08-15T10:33:00.544Z,27.31
2023-08-15T10:34:01.342Z,27.37
2023-08-15T10:35:02.171Z,27.37
2023-08-15T10:36:02.998Z,27.41
2023-08-15T10:37:03.824Z,27.44
2023-08-15T10:38:04.652Z,27.41
2023-08-15T10:39:05.492Z,27.39
2023-08-15T10:40:06.331Z,27.39
2023-08-15T10:41:07.145Z,27.39
2023-08-15T10:42:07.964Z,27.39
2023-08-15T10:43:08.839Z,27.37
2023-08-15T10:44:09.677Z,27.37
2023-08-15T10:45:10.506Z,27.37
2023-08-15T10:46:11.399Z,27.39
2023-08-15T10:47:12.173Z,27.39
2023-08-15T10:48:13.131Z,27.41
2023-08-15T10:49:13.947Z,27.44
2023-08-15T10:50:14.780Z,27.49
2023-08-15T10:51:15.601Z,27.47
2023-08-15T10:52:16.419Z,27.49
2023-08-15T10:53:19.013Z,27.50
2023-08-15T10:54:18.006Z,27.49
2023-08-15T10:55:18.867Z,27.49
2023-08-15T10:56:19.674Z,27.43
2023-08-15T10:57:20.718Z,27.44
2023-08-15T10:58:21.214Z,27.46
2023-08-15T10:59:22.036Z,27.47
2023-08-15T11:00:22.853Z,27.51
2023-08-15T11:01:23.713Z,27.54
2023-08-15T11:02:24.528Z,27.54
2023-08-15T11:03:25.401Z,27.57
2023-08-15T11:04:26.220Z,27.59
2023-08-15T11:05:27.085Z,27.59
2023-08-15T11:06:27.880Z,27.60
2023-08-15T11:07:28.707Z,27.65
2023-08-15T11:08:29.553Z,27.66
2023-08-15T11:09:30.412Z,27.65
2023-08-15T11:10:31.204Z,27.66
2023-08-15T11:11:32.029Z,27.66
2023-08-15T11:12:32.862Z,27.67
2023-08-15T11:13:33.695Z,27.72
2023-08-15T11:14:34.525Z,27.74
2023-08-15T11:15:35.353Z,27.77
2023-08-15T11:16:36.320Z,27.78
2023-08-15T11:17:36.721Z,27.79
2023-08-15T11:18:37.534Z,27.82
2023-08-15T11:19:38.375Z,27.84
2023-08-15T11:20:39.203Z,27.82
2023-08-15T11:21:40.028Z,27.78
2023-08-15T11:22:40.868Z,27.79
2023-08-15T11:23:41.693Z,27.79
2023-08-15T11:24:42.523Z,27.82
2023-08-15T11:25:43.354Z,27.82
2023-08-15T11:26:44.172Z,27.87
2023-08-15T11:27:45.009Z,27.87
2023-08-15T11:28:45.835Z,27.92
2023-08-15T11:29:47.050Z,27.93
2023-08-15T11:30:47.360Z,27.93
2023-08-15T11:31:48.350Z,27.96
2023-08-15T11:32:49.182Z,27.97
2023-08-15T11:33:49.973Z,28.00
2023-08-15T11:34:50.863Z,28.02
2023-08-15T11:35:51.689Z,27.97
2023-08-15T11:36:52.533Z,28.00
2023-08-15T11:37:53.381Z,28.00
2023-08-15T11:38:54.201Z,28.04
2023-08-15T11:39:55.030Z,28.04
2023-08-15T11:40:55.883Z,28.06
2023-08-15T11:41:56.719Z,28.07
2023-08-15T11:42:57.556Z,28.07
2023-08-15T11:43:58.377Z,28.07
2023-08-15T11:44:59.196Z,28.11
2023-08-15T11:46:00.134Z,28.14
2023-08-15T11:48:01.523Z,28.19
2023-08-15T11:49:02.387Z,28.22
2023-08-15T11:50:03.245Z,28.19
2023-08-15T11:51:04.086Z,28.25
2023-08-15T11:52:04.912Z,28.30
2023-08-15T11:53:05.747Z,28.33
2023-08-15T11:54:06.569Z,28.37
2023-08-15T11:55:07.408Z,28.43
2023-08-15T11:56:08.245Z,28.48
2023-08-15T11:57:09.153Z,28.55
2023-08-15T11:58:09.974Z,28.58
2023-08-15T11:59:10.780Z,28.52
2023-08-15T12:00:11.620Z,28.55
2023-08-15T12:01:12.524Z,28.56
2023-08-15T12:02:13.328Z,28.55
2023-08-15T12:03:14.240Z,28.52
2023-08-15T12:04:15.083Z,28.54
2023-08-15T12:05:15.921Z,28.56
2023-08-15T12:06:16.749Z,28.58
2023-08-15T12:07:17.575Z,28.62
2023-08-15T12:08:18.403Z,28.64
2023-08-15T12:09:19.245Z,28.64
2023-08-15T12:10:20.084Z,28.67
2023-08-15T12:11:20.906Z,28.67
2023-08-15T12:12:22.299Z,28.68
2023-08-15T12:13:22.266Z,28.66
2023-08-15T12:14:23.112Z,28.55
2023-08-15T12:15:23.921Z,28.39
2023-08-15T12:16:24.768Z,28.29
2023-08-15T12:17:25.863Z,28.18
2023-08-15T12:18:26.334Z,28.09
2023-08-15T12:19:27.932Z,28.00
2023-08-15T12:20:27.730Z,27.93
2023-08-15T12:21:28.560Z,27.87
2023-08-15T12:22:31.349Z,27.79
2023-08-15T12:23:30.206Z,27.74
2023-08-15T12:24:31.038Z,27.65
2023-08-15T12:25:31.856Z,27.59
2023-08-15T12:26:32.672Z,27.51
2023-08-15T12:27:33.500Z,27.46
2023-08-15T12:28:34.326Z,27.41
2023-08-15T12:30:12.303Z,27.37
2023-08-15T12:30:37.015Z,27.32
2023-08-15T12:31:36.879Z,27.29
2023-08-15T12:32:37.746Z,27.27
2023-08-15T12:33:47.344Z,27.25
2023-08-15T12:34:40.270Z,27.25
2023-08-15T12:35:40.095Z,27.24
2023-08-15T12:36:40.922Z,27.21
2023-08-15T12:37:41.796Z,27.18
2023-08-15T12:38:42.633Z,27.14
2023-08-15T12:39:43.460Z,27.13
2023-08-15T12:40:44.336Z,27.10
2023-08-15T12:41:45.166Z,27.10
2023-08-15T12:42:46.002Z,27.10
2023-08-15T12:43:46.842Z,27.07
2023-08-15T12:44:47.666Z,27.06
2023-08-15T12:45:48.538Z,27.04
2023-08-15T12:46:49.332Z,27.03
2023-08-15T12:47:50.203Z,27.03
2023-08-15T12:48:51.014Z,27.00
2023-08-15T12:49:51.833Z,27.00
2023-08-15T12:50:52.663Z,26.99
2023-08-15T12:51:53.621Z,26.95
2023-08-15T12:52:54.448Z,26.94
2023-08-15T12:53:55.260Z,26.95
2023-08-15T12:54:56.136Z,26.95
2023-08-15T12:55:56.958Z,26.91
2023-08-15T12:56:57.801Z,26.87
2023-08-15T12:57:58.633Z,26.85
2023-08-15T12:58:59.471Z,26.81
2023-08-15T13:00:00.294Z,26.73
2023-08-15T13:01:01.172Z,26.73
2023-08-15T13:02:01.993Z,26.67
2023-08-15T13:03:02.870Z,26.60
2023-08-15T13:04:03.874Z,26.45